Flight Track Log - Related Links

Times and Time Zones

All times are in EDT time to prevent confusion due to time zone crossing. See the FLG3861 flight status page for this flight to view local times or setup timezone preferences in your user account.

Time Position Orientation Groundspeed Altitude Reporting Facility
EDT Latitude Longitude Course Direction KTS MPH feet Rate Location/Type
Thu 09:54:06 PM 42.2031 -83.3525 170° South 151 174 1,400  Level Cleveland Center
Thu 09:55:00 PM 42.1700 -83.3450 170° South 170 196 3,400 2,035 Climbing Cleveland Center
Thu 09:56:01 PM 42.1511 -83.2664 108° East 330 380 5,300 1,739 Climbing Cleveland Center
Thu 09:56:09 PM 42.1525 -83.2633 58° Northeast 264 304 5,400 2,951 Climbing Cleveland Center
Thu 09:57:02 PM 42.1847 -83.1556 68° East 312 359 8,300 2,806 Climbing Cleveland Center
Thu 09:57:11 PM 42.1872 -83.1494 61° Northeast 314 361 8,300 1,971 Level Cleveland Center
Thu 09:58:12 PM 42.2189 -83.0306 70° East 337 388 10,600 1,902 Climbing Cleveland Center
Thu 09:59:14 PM 42.2525 -82.9039 70° East 358 412 12,200 1,512 Climbing Cleveland Center
Thu 10:00:15 PM 42.2878 -82.7664 71° East 385 443 13,700 1,610 Climbing Cleveland Center
Thu 10:01:17 PM 42.3319 -82.5950 71° East 401 461 15,500 1,610 Climbing Cleveland Center
Thu 10:02:18 PM 42.3675 -82.4494 72° East 407 468 17,000 1,220 Climbing Cleveland Center
Thu 10:03:20 PM 42.3689 -82.2944 89° East 410 472 18,000 927 Climbing Cleveland Center
Thu 10:04:21 PM 42.3683 -82.1258 90° East 422 486 18,900 732 Climbing Cleveland Center
Thu 10:05:23 PM 42.3694 -81.9592 89° East 434 499 19,500 581 Climbing Cleveland Center
Thu 10:06:25 PM 42.3678 -81.7875 91° East 447 514 20,100 634 Climbing Cleveland Center
Thu 10:07:26 PM 42.3683 -81.6128 90° East 456 525 20,800 439 Climbing Cleveland Center
Thu 10:08:28 PM 42.3675 -81.4372 90° East 461 531 21,000 98 Climbing Cleveland Center
Thu 10:09:29 PM 42.3667 -81.2558 90° East 472 543 21,000  Level Cleveland Center
Thu 10:10:31 PM 42.3656 -81.0719 90° East 480 552 21,000  Level Cleveland Center
Thu 10:11:32 PM 42.3625 -80.8867 91° East 483 556 21,000  Level Cleveland Center
Thu 10:12:34 PM 42.3611 -80.7006 91° East 485 558 21,000  Level Cleveland Center
Thu 10:13:36 PM 42.3594 -80.5178 91° East 487 560 21,000  Level Cleveland Center
Thu 10:14:37 PM 42.3558 -80.3044 91° East 483 556 21,000  Level Cleveland Center
Thu 10:15:39 PM 42.3544 -80.1214 91° East 483 556 21,000  Level Cleveland Center
Thu 10:16:41 PM 42.3511 -79.9492 91° East 482 555 21,000  Level Cleveland Center
Thu 10:17:42 PM 42.3464 -79.7714 92° East 476 548 21,000  Level Cleveland Center
Thu 10:18:44 PM 42.3425 -79.5919 92° East 477 549 21,000  Level Cleveland Center
Thu 10:19:46 PM 42.3383 -79.4153 92° East 477 549 21,000  Level Cleveland Center
Thu 10:20:47 PM 42.3331 -79.2000 92° East 477 549 21,000  Level Cleveland Center
Thu 10:21:49 PM 42.3286 -79.0208 92° East 479 551 21,000  Level Cleveland Center
Thu 10:22:50 PM 42.3242 -78.8522 92° East 479 551 21,000  Level Cleveland Center
Thu 10:23:52 PM 42.3194 -78.6756 92° East 477 549 21,000 -145 Level Cleveland Center
Thu 10:24:54 PM 42.3142 -78.4964 92° East 477 549 20,700 -1,073 Descending Cleveland Center
Thu 10:25:55 PM 42.3072 -78.2867 92° East 474 545 18,800 -1,659 Descending Cleveland Center
Thu 10:26:57 PM 42.3017 -78.1183 92° East 459 528 17,300 -1,024 Descending Cleveland Center
Thu 10:27:58 PM 42.2956 -77.9511 93° East 456 525 16,700 -732 Descending Cleveland Center
Thu 10:29:00 PM 42.2894 -77.7844 93° East 453 521 15,800 -823 Descending Cleveland Center
Thu 10:30:02 PM 42.2833 -77.6142 93° East 455 524 15,000 -390 Descending Cleveland Center
Thu 10:31:03 PM 42.2758 -77.4453 93° East 456 525 15,000  Level Cleveland Center
Thu 10:32:05 PM 42.2689 -77.2497 93° East 445 512 15,000  Level Cleveland Center
Thu 10:33:06 PM 42.2617 -77.0875 93° East 441 507 15,000 -244 Level Cleveland Center
Thu 10:34:08 PM 42.2547 -76.9264 93° East 436 502 14,500 -878 Descending Cleveland Center
Thu 10:35:09 PM 42.2486 -76.7833 93° East 383 441 13,200 -1,721 Descending Cleveland Center
Thu 10:36:10 PM 42.2408 -76.6494 94° East 367 422 11,000 -1,659 Descending Cleveland Center
Thu 10:37:12 PM 42.2356 -76.5192 93° East 354 407 9,800 -1,024 Descending Cleveland Center
Thu 10:38:13 PM 42.2286 -76.3894 94° East 314 361 8,900 -1,426 Descending Cleveland Center
Thu 10:39:14 PM 42.2231 -76.2744 94° East 308 354 6,900 -1,805 Descending Cleveland Center
Thu 10:40:16 PM 42.2389 -76.1639 79° East 322 371 5,200 -1,610 Descending Cleveland Center
Thu 10:41:17 PM 42.2975 -76.0836 45° Northeast 290 334 3,600 -1,108 Descending Cleveland Center
Thu 10:42:26 PM 42.2633 -76.0217 127° Southeast 172 198 2,800 -651 Descending New York Center
Thu 10:43:26 PM 42.2392 -76.0028 150° Southeast 131 151 2,200 -600 Descending New York Center

Login

Don't have an account? Register now (free) for customized features, flight alerts, and more!